This is the latest recevied weather packets stored in our database for station/object EA2RCU-15. If no packets are shown the sender has not sent any weather packets the latest 10 day(s).
| Time | Temp. | Humidity | Pressure | Rain* | Wind** | Luminosity | Snow |
|---|---|---|---|---|---|---|---|
| 1787774705 | 25.56° C | 23% | 993 hPa | 0 mm | - | - | - |
| 1787774407 | 25° C | 30% | 993 hPa | 0 mm | - | - | - |
| 1787774104 | 25° C | 33% | 993 hPa | 0 mm | - | - | - |
| 1787773805 | 25° C | 36% | 993 hPa | 0 mm | - | - | - |
| 1787773504 | 25.56° C | 34% | 993 hPa | 0 mm | - | - | - |
| 1787773204 | 25.56° C | 34% | 993 hPa | 0 mm | - | - | - |
| 1787772904 | 25.56° C | 35% | 993 hPa | 0 mm | - | - | - |
| 1787772604 | 25.56° C | 37% | 993 hPa | 0 mm | - | - | - |
| 1787772304 | 25.56° C | 38% | 993 hPa | 0 mm | - | - | - |
| 1787772004 | 25.56° C | 40% | 993 hPa | 0 mm | - | - | - |
| 1787771704 | 25.56° C | 40% | 993 hPa | 0 mm | - | - | - |
| 1787771404 | 25.56° C | 39% | 993 hPa | 0 mm | - | - | - |
| 1787771104 | 25.56° C | 36% | 993 hPa | 0 mm | - | - | - |
| 1787770804 | 26.11° C | 35% | 993 hPa | 0 mm | - | - | - |
| 1787770504 | 26.11° C | 34% | 993 hPa | 0 mm | - | - | - |
| 1787770204 | 26.11° C | 32% | 993 hPa | 0 mm | - | - | - |
| 1787769904 | 26.11° C | 32% | 993 hPa | 0 mm | - | - | - |
| 1787769604 | 26.11° C | 32% | 993 hPa | 0 mm | - | - | - |
| 1787769304 | 26.67° C | 32% | 993 hPa | 0 mm | - | - | - |
| 1787769004 | 26.67° C | 31% | 993 hPa | 0 mm | - | - | - |
| 1787768704 | 27.22° C | 29% | 992 hPa | 0 mm | - | - | - |
| 1787768404 | 27.22° C | 26% | 992 hPa | 0 mm | - | - | - |
| 1787768104 | 27.22° C | 25% | 992 hPa | 0 mm | - | - | - |
| 1787767807 | 27.22° C | 24% | 992 hPa | 0 mm | - | - | - |
| 1787767504 | 27.22° C | 29% | 992 hPa | 0 mm | - | - | - |
* Rain latest hour (hover to see other rain measurements)
** Current wind speed in m/s (hover to see current wind gust speed)